createdAt,value
2023-04-27T00:00:57.882Z,28.36
2023-04-27T00:01:57.890Z,28.37
2023-04-27T00:02:57.996Z,28.35
2023-04-27T00:03:57.982Z,28.35
2023-04-27T00:04:57.972Z,28.35
2023-04-27T00:05:57.825Z,28.35
2023-04-27T00:06:57.761Z,28.37
2023-04-27T00:07:57.729Z,28.38
2023-04-27T00:08:57.708Z,28.39
2023-04-27T00:09:57.684Z,28.39
2023-04-27T00:10:57.651Z,28.38
2023-04-27T00:11:57.626Z,28.39
2023-04-27T00:12:57.599Z,28.38
2023-04-27T00:13:57.588Z,28.38
2023-04-27T00:14:57.551Z,28.37
2023-04-27T00:15:57.608Z,28.37
2023-04-27T00:16:57.498Z,28.36
2023-04-27T00:17:57.519Z,28.38
2023-04-27T00:18:57.490Z,28.37
2023-04-27T00:19:57.529Z,28.37
2023-04-27T00:20:57.572Z,28.38
2023-04-27T00:21:57.637Z,28.38
2023-04-27T00:22:57.653Z,28.40
2023-04-27T00:23:57.679Z,28.39
2023-04-27T00:24:57.716Z,28.39
2023-04-27T00:25:57.751Z,28.38
2023-04-27T00:26:57.838Z,28.38
2023-04-27T00:27:57.852Z,28.40
2023-04-27T00:28:57.917Z,28.39
2023-04-27T00:29:57.943Z,28.38
2023-04-27T00:30:58.003Z,28.40
2023-04-27T00:31:58.053Z,28.37
2023-04-27T00:32:58.093Z,28.39
2023-04-27T00:33:58.085Z,28.41
2023-04-27T00:34:58.135Z,28.38
2023-04-27T00:35:58.165Z,28.38
2023-04-27T00:36:58.202Z,28.37
2023-04-27T00:37:58.244Z,28.38
2023-04-27T00:38:58.299Z,28.38
2023-04-27T00:39:58.338Z,28.39
2023-04-27T00:40:58.376Z,28.39
2023-04-27T00:41:58.397Z,28.38
2023-04-27T00:42:58.420Z,28.37
2023-04-27T00:43:58.422Z,28.38
2023-04-27T00:44:58.464Z,28.40
2023-04-27T00:45:58.441Z,28.38
2023-04-27T00:46:58.414Z,28.39
2023-04-27T00:47:58.416Z,28.37
2023-04-27T00:48:58.358Z,28.40
2023-04-27T00:49:58.349Z,28.38
2023-04-27T00:50:58.316Z,28.40
2023-04-27T00:51:58.303Z,28.40
2023-04-27T00:52:58.268Z,28.40
2023-04-27T00:53:58.252Z,28.38
2023-04-27T00:54:58.272Z,28.37
2023-04-27T00:55:58.303Z,28.38
2023-04-27T00:56:58.326Z,28.40
2023-04-27T00:57:58.344Z,28.39
2023-04-27T00:58:58.369Z,28.39
2023-04-27T00:59:58.377Z,28.38
2023-04-27T01:00:58.410Z,28.38
2023-04-27T01:01:58.402Z,28.39
2023-04-27T01:02:58.500Z,28.40
2023-04-27T01:03:58.445Z,28.38
2023-04-27T01:04:58.338Z,28.38
2023-04-27T01:05:58.315Z,28.38
2023-04-27T01:06:58.319Z,28.38
2023-04-27T01:07:58.288Z,28.40
2023-04-27T01:08:58.271Z,28.37
2023-04-27T01:09:58.301Z,28.40
2023-04-27T01:10:58.316Z,28.40
2023-04-27T01:11:58.351Z,28.39
2023-04-27T01:12:58.359Z,28.41
2023-04-27T01:13:58.365Z,28.40
2023-04-27T01:14:58.396Z,28.38
2023-04-27T01:15:58.385Z,28.36
2023-04-27T01:16:58.514Z,28.40
2023-04-27T01:17:58.457Z,28.42
2023-04-27T01:18:58.307Z,28.40
2023-04-27T01:19:58.281Z,28.40
2023-04-27T01:20:58.276Z,28.38
2023-04-27T01:21:58.242Z,28.40
2023-04-27T01:22:58.209Z,28.40
2023-04-27T01:23:58.194Z,28.40
2023-04-27T01:24:58.176Z,28.42
2023-04-27T01:25:58.138Z,28.41
2023-04-27T01:26:58.110Z,28.39
2023-04-27T01:27:58.110Z,28.39
2023-04-27T01:28:58.090Z,28.42
2023-04-27T01:29:58.056Z,28.40
2023-04-27T01:30:58.135Z,28.43
2023-04-27T01:31:57.995Z,28.42
2023-04-27T01:32:58.095Z,28.42
2023-04-27T01:33:57.996Z,28.43
2023-04-27T01:34:58.025Z,28.42
2023-04-27T01:35:58.023Z,28.43
2023-04-27T01:36:58.054Z,28.42
2023-04-27T01:37:58.072Z,28.42
2023-04-27T01:38:58.028Z,28.40
2023-04-27T01:39:58.062Z,28.40
2023-04-27T01:40:58.098Z,28.42
2023-04-27T01:41:58.720Z,28.41
2023-04-27T01:42:58.113Z,28.39
2023-04-27T01:43:58.119Z,28.39
2023-04-27T01:44:58.122Z,28.39
2023-04-27T01:45:58.135Z,28.41
2023-04-27T01:46:58.092Z,28.42
2023-04-27T01:47:58.148Z,28.41
2023-04-27T01:48:58.149Z,28.41
2023-04-27T01:49:58.164Z,28.40
2023-04-27T01:50:58.187Z,28.41
2023-04-27T01:51:58.219Z,28.38
2023-04-27T01:52:58.222Z,28.42
2023-04-27T01:53:58.229Z,28.40
2023-04-27T01:54:58.244Z,28.40
2023-04-27T01:55:58.263Z,28.39
2023-04-27T01:56:58.268Z,28.40
2023-04-27T01:57:58.263Z,28.39
2023-04-27T01:58:58.272Z,28.39
2023-04-27T01:59:58.272Z,28.38
2023-04-27T02:00:58.240Z,28.38
2023-04-27T02:01:58.334Z,28.39
2023-04-27T02:02:58.415Z,28.39
2023-04-27T02:03:58.409Z,28.37
2023-04-27T02:04:58.304Z,28.39
2023-04-27T02:05:58.358Z,28.39
2023-04-27T02:06:58.389Z,28.37
2023-04-27T02:07:58.386Z,28.38
2023-04-27T02:08:58.396Z,28.40
2023-04-27T02:09:58.432Z,28.40
2023-04-27T02:10:58.433Z,28.40
2023-04-27T02:11:58.462Z,28.40
2023-04-27T02:12:58.492Z,28.40
2023-04-27T02:13:58.507Z,28.39
2023-04-27T02:14:58.532Z,28.39
2023-04-27T02:15:58.607Z,28.38
2023-04-27T02:16:58.568Z,28.40
2023-04-27T02:17:58.614Z,28.38
2023-04-27T02:18:58.552Z,28.39
2023-04-27T02:19:58.567Z,28.40
2023-04-27T02:20:58.601Z,28.40
2023-04-27T02:21:58.639Z,28.40
2023-04-27T02:22:58.664Z,28.39
2023-04-27T02:23:58.695Z,28.41
2023-04-27T02:24:58.760Z,28.40
2023-04-27T02:25:58.784Z,28.39
2023-04-27T02:26:58.810Z,28.40
2023-04-27T02:27:58.871Z,28.40
2023-04-27T02:28:58.828Z,28.41
2023-04-27T02:29:58.803Z,28.42
2023-04-27T02:30:58.781Z,28.42
2023-04-27T02:31:58.933Z,28.41
2023-04-27T02:32:58.809Z,28.41
2023-04-27T02:33:58.721Z,28.40
2023-04-27T02:34:58.741Z,28.42
2023-04-27T02:35:58.669Z,28.42
2023-04-27T02:36:58.643Z,28.41
2023-04-27T02:37:58.625Z,28.39
2023-04-27T02:38:58.599Z,28.39
2023-04-27T02:39:58.590Z,28.37
2023-04-27T02:40:58.562Z,28.39
2023-04-27T02:41:58.538Z,28.39
2023-04-27T02:42:58.515Z,28.40
2023-04-27T02:43:58.517Z,28.40
2023-04-27T02:44:58.546Z,28.40
2023-04-27T02:45:58.533Z,28.40
2023-04-27T02:46:58.624Z,28.40
2023-04-27T02:47:58.579Z,28.42
2023-04-27T02:48:58.620Z,28.41
2023-04-27T02:49:58.637Z,28.40
2023-04-27T02:50:58.633Z,28.39
2023-04-27T02:51:58.609Z,28.40
2023-04-27T02:52:58.630Z,28.41
2023-04-27T02:53:58.652Z,28.40
2023-04-27T02:54:58.803Z,28.38
2023-04-27T02:55:58.717Z,28.39
2023-04-27T02:56:58.708Z,28.39
2023-04-27T02:57:58.728Z,28.39
2023-04-27T02:58:58.699Z,28.37
2023-04-27T02:59:58.717Z,28.39
2023-04-27T03:00:58.816Z,28.38
2023-04-27T03:01:58.761Z,28.41
2023-04-27T03:02:58.874Z,28.39
2023-04-27T03:03:58.865Z,28.39
2023-04-27T03:04:58.762Z,28.36
2023-04-27T03:05:58.767Z,28.37
2023-04-27T03:06:58.763Z,28.38
2023-04-27T03:07:58.793Z,28.37
2023-04-27T03:08:58.797Z,28.38
2023-04-27T03:09:58.770Z,28.39
2023-04-27T03:10:58.784Z,28.39
2023-04-27T03:11:58.806Z,28.40
2023-04-27T03:12:58.835Z,28.37
2023-04-27T03:13:58.830Z,28.38
2023-04-27T03:14:58.835Z,28.39
2023-04-27T03:15:58.945Z,28.39
2023-04-27T03:16:58.849Z,28.38
2023-04-27T03:17:58.894Z,28.39
2023-04-27T03:18:58.851Z,28.38
2023-04-27T03:19:58.858Z,28.37
2023-04-27T03:20:58.885Z,28.39
2023-04-27T03:21:58.883Z,28.38
2023-04-27T03:22:58.894Z,28.35
2023-04-27T03:23:58.918Z,28.39
2023-04-27T03:24:59.035Z,28.36
2023-04-27T03:25:58.960Z,28.38
2023-04-27T03:26:58.998Z,28.39
2023-04-27T03:27:58.967Z,28.38
2023-04-27T03:28:58.973Z,28.39
2023-04-27T03:29:58.941Z,28.39
2023-04-27T03:30:58.939Z,28.38
2023-04-27T03:31:58.978Z,28.40
2023-04-27T03:32:58.978Z,28.39
2023-04-27T03:33:58.873Z,28.39
2023-04-27T03:34:58.877Z,28.37
2023-04-27T03:35:58.841Z,28.38
2023-04-27T03:36:58.822Z,28.37
2023-04-27T03:37:58.814Z,28.37
2023-04-27T03:38:58.843Z,28.37
2023-04-27T03:39:58.836Z,28.37
2023-04-27T03:40:58.779Z,28.36
2023-04-27T03:41:58.774Z,28.38
2023-04-27T03:42:59.257Z,28.36
2023-04-27T03:43:58.779Z,28.39
2023-04-27T03:44:58.773Z,28.40
2023-04-27T03:45:58.812Z,28.37
2023-04-27T03:46:58.786Z,28.37
2023-04-27T03:47:58.789Z,28.39
2023-04-27T03:48:58.746Z,28.38
2023-04-27T03:49:58.732Z,28.40
2023-04-27T03:50:58.736Z,28.37
2023-04-27T03:51:58.693Z,28.36
2023-04-27T03:52:58.705Z,28.35
2023-04-27T03:53:58.657Z,28.34
2023-04-27T03:54:58.677Z,28.36
2023-04-27T03:55:58.620Z,28.35
2023-04-27T03:56:58.622Z,28.35
2023-04-27T03:57:58.600Z,28.35
2023-04-27T03:58:58.584Z,28.34
2023-04-27T03:59:58.565Z,28.35
2023-04-27T04:00:58.561Z,28.34
2023-04-27T04:02:00.944Z,28.35
2023-04-27T04:02:58.742Z,28.36
2023-04-27T04:03:58.757Z,28.33
2023-04-27T04:04:58.501Z,28.36
2023-04-27T04:05:58.450Z,28.34
2023-04-27T04:06:58.439Z,28.36
2023-04-27T04:07:58.428Z,28.36
2023-04-27T04:08:58.424Z,28.34
2023-04-27T04:09:58.402Z,28.36
2023-04-27T04:10:58.380Z,28.36
2023-04-27T04:11:58.363Z,28.35
2023-04-27T04:12:58.354Z,28.36
2023-04-27T04:13:58.345Z,28.36
2023-04-27T04:14:58.330Z,28.36
2023-04-27T04:15:58.320Z,28.36
2023-04-27T04:16:58.284Z,28.35
2023-04-27T04:17:58.302Z,28.36
2023-04-27T04:18:58.256Z,28.34
2023-04-27T04:19:58.253Z,28.36
2023-04-27T04:20:58.218Z,28.35
2023-04-27T04:21:58.224Z,28.34
2023-04-27T04:22:58.188Z,28.38
2023-04-27T04:23:58.177Z,28.36
2023-04-27T04:24:58.167Z,28.37
2023-04-27T04:25:58.140Z,28.35
2023-04-27T04:26:58.122Z,28.37
2023-04-27T04:27:58.118Z,28.37
2023-04-27T04:28:58.093Z,28.37
2023-04-27T04:29:58.073Z,28.38
2023-04-27T04:30:58.128Z,28.34
2023-04-27T04:31:58.025Z,28.36
2023-04-27T04:32:58.052Z,28.37
2023-04-27T04:33:57.998Z,28.39
2023-04-27T04:34:57.977Z,28.37
2023-04-27T04:35:57.965Z,28.36
2023-04-27T04:36:57.934Z,28.37
2023-04-27T04:37:57.906Z,28.35
2023-04-27T04:38:57.879Z,28.36
2023-04-27T04:39:57.856Z,28.38
2023-04-27T04:40:57.889Z,28.37
2023-04-27T04:41:57.813Z,28.36
2023-04-27T04:42:57.815Z,28.38
2023-04-27T04:43:57.780Z,28.35
2023-04-27T04:44:57.778Z,28.37
2023-04-27T04:45:57.749Z,28.37
2023-04-27T04:46:57.804Z,28.37
2023-04-27T04:47:57.754Z,28.36
2023-04-27T04:48:57.691Z,28.37
2023-04-27T04:49:57.685Z,28.35
2023-04-27T04:50:57.651Z,28.37
2023-04-27T04:51:57.625Z,28.35
2023-04-27T04:52:57.614Z,28.36
2023-04-27T04:53:58.374Z,28.36
2023-04-27T04:54:57.555Z,28.37
2023-04-27T04:55:57.525Z,28.36
2023-04-27T04:56:57.501Z,28.35
2023-04-27T04:57:57.494Z,28.36
2023-04-27T04:58:57.476Z,28.33
2023-04-27T04:59:57.445Z,28.35
2023-04-27T05:00:57.413Z,28.35
2023-04-27T05:01:57.549Z,28.35
2023-04-27T05:02:57.464Z,28.35
2023-04-27T05:03:57.470Z,28.34
2023-04-27T05:04:57.567Z,28.34
2023-04-27T05:05:57.318Z,28.33
2023-04-27T05:06:57.278Z,28.35
2023-04-27T05:07:57.257Z,28.36
2023-04-27T05:08:57.239Z,28.35
2023-04-27T05:09:57.223Z,28.35
2023-04-27T05:10:57.191Z,28.34
2023-04-27T05:11:57.162Z,28.33
2023-04-27T05:12:57.155Z,28.34
2023-04-27T05:13:57.128Z,28.35
2023-04-27T05:14:57.094Z,28.34
2023-04-27T05:15:57.111Z,28.36
2023-04-27T05:16:57.052Z,28.34
2023-04-27T05:17:57.090Z,28.35
2023-04-27T05:18:57.036Z,28.32
2023-04-27T05:19:57.018Z,28.33
2023-04-27T05:20:57.042Z,28.35
2023-04-27T05:21:57.014Z,28.35
2023-04-27T05:22:56.965Z,28.36
2023-04-27T05:23:56.958Z,28.34
2023-04-27T05:24:56.935Z,28.33
2023-04-27T05:25:56.922Z,28.33
2023-04-27T05:26:56.916Z,28.33
2023-04-27T05:27:56.865Z,28.33
2023-04-27T05:28:56.860Z,28.32
2023-04-27T05:29:56.847Z,28.33
2023-04-27T05:30:56.824Z,28.33
2023-04-27T05:31:56.818Z,28.32
2023-04-27T05:32:56.870Z,28.33
2023-04-27T05:33:57.246Z,28.62
2023-04-27T05:34:56.804Z,28.70
2023-04-27T05:35:56.839Z,28.86
2023-04-27T05:36:56.739Z,28.99
2023-04-27T05:37:56.706Z,29.09
2023-04-27T05:38:56.680Z,29.11
2023-04-27T05:39:56.662Z,29.29
2023-04-27T05:40:56.700Z,29.54
2023-04-27T05:41:56.627Z,29.53
2023-04-27T05:42:56.668Z,29.72
2023-04-27T05:43:56.683Z,29.82
2023-04-27T05:44:56.732Z,29.94
2023-04-27T05:45:56.989Z,30.02
2023-04-27T05:46:57.035Z,30.21
2023-04-27T05:47:56.877Z,30.31
2023-04-27T05:48:56.787Z,30.45
2023-04-27T05:49:56.779Z,30.54
2023-04-27T05:50:56.770Z,28.77
2023-04-27T05:51:56.731Z,28.04
2023-04-27T05:52:56.953Z,27.48
2023-04-27T05:53:56.696Z,28.56
2023-04-27T05:54:56.715Z,28.54
2023-04-27T05:55:56.743Z,28.99
2023-04-27T05:56:56.679Z,29.19
2023-04-27T05:58:07.046Z,29.37
2023-04-27T05:58:57.612Z,29.45
2023-04-27T05:59:56.610Z,29.62
2023-04-27T06:00:56.607Z,29.68
2023-04-27T06:01:56.617Z,29.81
2023-04-27T06:02:56.671Z,29.86
2023-04-27T06:03:56.608Z,29.94
2023-04-27T06:04:56.608Z,30.04
2023-04-27T06:05:58.725Z,30.19
2023-04-27T06:06:56.529Z,30.19
2023-04-27T06:07:56.522Z,30.24
2023-04-27T06:08:56.558Z,30.34
2023-04-27T06:09:56.591Z,30.47
2023-04-27T06:10:56.647Z,30.62
2023-04-27T06:11:56.685Z,30.67
2023-04-27T06:12:56.735Z,30.83
2023-04-27T06:13:56.760Z,30.94
2023-04-27T06:14:56.791Z,31.03
2023-04-27T06:15:56.882Z,31.06
2023-04-27T06:16:56.985Z,31.16
2023-04-27T06:17:56.977Z,31.26
2023-04-27T06:18:56.942Z,31.35
2023-04-27T06:19:56.950Z,31.48
2023-04-27T06:20:56.978Z,31.55
2023-04-27T06:21:57.023Z,31.51
2023-04-27T06:22:57.053Z,31.64
2023-04-27T06:23:57.051Z,31.65
2023-04-27T06:24:57.045Z,31.84
2023-04-27T06:25:57.085Z,31.93
2023-04-27T06:26:57.116Z,31.95
2023-04-27T06:27:57.110Z,31.97
2023-04-27T06:28:57.109Z,32.09
2023-04-27T06:29:57.171Z,32.03
2023-04-27T06:30:57.138Z,32.26
2023-04-27T06:31:57.173Z,32.31
2023-04-27T06:32:57.240Z,32.45
2023-04-27T06:33:57.150Z,32.45
2023-04-27T06:34:57.144Z,32.44
2023-04-27T06:35:57.165Z,32.65
2023-04-27T06:36:57.133Z,32.73
2023-04-27T06:37:57.153Z,32.73
2023-04-27T06:38:57.168Z,32.89
2023-04-27T06:39:57.126Z,32.81
2023-04-27T06:40:57.131Z,32.86
2023-04-27T06:41:57.094Z,32.96
2023-04-27T06:42:57.327Z,32.97
2023-04-27T06:43:58.548Z,32.60
2023-04-27T06:44:57.052Z,32.36
2023-04-27T06:45:57.114Z,31.94
2023-04-27T06:46:57.054Z,31.73
2023-04-27T06:47:57.047Z,31.63
2023-04-27T06:48:57.049Z,31.67
2023-04-27T06:49:57.083Z,31.66
2023-04-27T06:50:57.013Z,31.70
2023-04-27T06:51:57.077Z,31.72
2023-04-27T06:52:57.011Z,31.80
2023-04-27T06:53:56.982Z,31.88
2023-04-27T06:54:56.999Z,31.92
2023-04-27T06:55:57.027Z,31.90
2023-04-27T06:56:56.995Z,32.02
2023-04-27T06:57:57.300Z,32.06
2023-04-27T06:58:56.982Z,32.09
2023-04-27T06:59:57.009Z,32.16
2023-04-27T07:00:57.039Z,32.22
2023-04-27T07:01:57.035Z,32.23
2023-04-27T07:02:57.025Z,32.26
2023-04-27T07:03:57.086Z,32.30
2023-04-27T07:04:56.979Z,32.37
2023-04-27T07:05:56.881Z,32.44
2023-04-27T07:06:56.823Z,32.54
2023-04-27T07:07:56.805Z,32.64
2023-04-27T07:08:56.781Z,32.67
2023-04-27T07:09:56.746Z,32.70
2023-04-27T07:10:56.740Z,32.76
2023-04-27T07:11:56.668Z,32.74
2023-04-27T07:12:56.651Z,32.83
2023-04-27T07:13:56.620Z,32.87
2023-04-27T07:14:56.581Z,32.97
2023-04-27T07:15:56.610Z,33.02
2023-04-27T07:16:56.581Z,33.02
2023-04-27T07:17:56.548Z,33.19
2023-04-27T07:18:56.439Z,33.22
2023-04-27T07:19:56.408Z,33.32
2023-04-27T07:20:56.438Z,33.35
2023-04-27T07:21:56.397Z,33.42
2023-04-27T07:22:56.291Z,33.44
2023-04-27T07:23:56.261Z,33.45
2023-04-27T07:24:56.210Z,33.50
2023-04-27T07:25:56.190Z,33.59
2023-04-27T07:26:56.145Z,33.67
2023-04-27T07:27:56.126Z,33.66
2023-04-27T07:28:56.089Z,33.66
2023-04-27T07:29:56.067Z,33.66
2023-04-27T07:30:56.007Z,33.69
2023-04-27T07:31:56.217Z,33.69
2023-04-27T07:32:55.999Z,33.81
2023-04-27T07:33:55.904Z,33.86
2023-04-27T07:34:55.886Z,33.88
2023-04-27T07:35:56.036Z,33.91
2023-04-27T07:36:55.815Z,34.16
2023-04-27T07:37:55.760Z,34.15
2023-04-27T07:38:55.724Z,34.17
2023-04-27T07:39:55.685Z,33.89
2023-04-27T07:40:55.674Z,33.06
2023-04-27T07:41:55.606Z,31.20
2023-04-27T07:42:55.569Z,31.73
2023-04-27T07:43:55.551Z,30.82
2023-04-27T07:44:55.518Z,31.30
2023-04-27T07:45:55.532Z,30.48
2023-04-27T07:46:55.439Z,29.57
2023-04-27T07:47:56.983Z,29.95
2023-04-27T07:48:55.358Z,28.52
2023-04-27T07:49:55.330Z,29.12
2023-04-27T07:50:55.308Z,28.52
2023-04-27T07:51:55.246Z,28.75
2023-04-27T07:52:55.257Z,28.44
2023-04-27T07:53:55.194Z,28.81
2023-04-27T07:54:55.146Z,28.83
2023-04-27T07:55:55.110Z,28.63
2023-04-27T07:56:55.095Z,28.06
2023-04-27T07:57:55.048Z,27.93
2023-04-27T07:58:55.024Z,27.95
2023-04-27T07:59:54.971Z,28.12
2023-04-27T08:00:54.975Z,28.22
2023-04-27T08:02:04.073Z,27.10
2023-04-27T08:02:56.188Z,27.96
2023-04-27T08:03:55.004Z,27.60
2023-04-27T08:04:55.064Z,27.66
2023-04-27T08:05:55.001Z,27.57
2023-04-27T08:06:55.228Z,27.62
2023-04-27T08:07:54.988Z,27.34
2023-04-27T08:08:54.768Z,27.25
2023-04-27T08:09:54.676Z,27.28
2023-04-27T08:10:54.685Z,27.69
2023-04-27T08:11:54.623Z,27.19
2023-04-27T08:12:54.617Z,27.05
2023-04-27T08:13:54.636Z,27.41
2023-04-27T08:14:54.664Z,27.01
2023-04-27T08:15:54.725Z,26.89
2023-04-27T08:16:54.774Z,27.19
2023-04-27T08:17:54.818Z,27.26
2023-04-27T08:18:54.828Z,27.03
2023-04-27T08:19:54.868Z,27.08
2023-04-27T08:20:54.877Z,27.04
2023-04-27T08:21:54.890Z,26.86
2023-04-27T08:22:54.893Z,27.09
2023-04-27T08:23:54.878Z,27.12
2023-04-27T08:24:54.860Z,27.05
2023-04-27T08:25:54.865Z,27.16
2023-04-27T08:26:54.816Z,27.08
2023-04-27T08:27:54.820Z,27.09
2023-04-27T08:28:54.777Z,27.28
2023-04-27T08:29:54.771Z,27.36
2023-04-27T08:30:54.798Z,27.53
2023-04-27T08:31:56.730Z,27.61
2023-04-27T08:32:54.943Z,27.94
2023-04-27T08:33:54.741Z,27.97
2023-04-27T08:34:54.688Z,28.13
2023-04-27T08:35:54.656Z,28.11
2023-04-27T08:36:54.700Z,28.00
2023-04-27T08:37:54.640Z,28.00
2023-04-27T08:38:54.605Z,27.99
2023-04-27T08:39:54.586Z,27.94
2023-04-27T08:40:54.557Z,27.78
2023-04-27T08:41:54.560Z,27.88
2023-04-27T08:42:54.508Z,27.77
2023-04-27T08:43:54.490Z,27.35
2023-04-27T08:44:54.457Z,27.64
2023-04-27T08:45:54.458Z,27.80
2023-04-27T08:46:54.444Z,28.36
2023-04-27T08:47:54.576Z,28.73
2023-04-27T08:48:54.400Z,28.94
2023-04-27T08:49:54.374Z,29.40
2023-04-27T08:50:54.485Z,29.74
2023-04-27T08:51:54.352Z,29.79
2023-04-27T08:52:54.300Z,29.50
2023-04-27T08:53:54.285Z,29.27
2023-04-27T08:54:54.320Z,29.30
2023-04-27T08:55:54.287Z,29.74
2023-04-27T08:56:54.309Z,29.69
2023-04-27T08:57:54.227Z,29.70
2023-04-27T08:58:54.189Z,29.62
2023-04-27T08:59:54.371Z,29.62
2023-04-27T09:00:54.209Z,29.63
2023-04-27T09:01:54.177Z,29.68
2023-04-27T09:02:54.287Z,29.72
2023-04-27T09:03:54.144Z,29.67
2023-04-27T09:04:54.165Z,29.80
2023-04-27T09:06:04.743Z,29.97
2023-04-27T09:06:55.028Z,30.05
2023-04-27T09:07:54.010Z,30.19
2023-04-27T09:08:53.998Z,29.75
2023-04-27T09:09:54.055Z,30.10
2023-04-27T09:10:53.962Z,29.97
2023-04-27T09:11:53.937Z,29.97
2023-04-27T09:12:53.897Z,29.74
2023-04-27T09:13:53.881Z,30.16
2023-04-27T09:14:53.873Z,29.93
2023-04-27T09:15:53.862Z,30.06
2023-04-27T09:16:53.913Z,30.29
2023-04-27T09:17:53.892Z,30.12
2023-04-27T09:18:53.871Z,30.19
2023-04-27T09:19:53.871Z,30.29
2023-04-27T09:20:53.880Z,30.52
2023-04-27T09:21:53.899Z,29.92
2023-04-27T09:22:53.914Z,29.75
2023-04-27T09:23:53.926Z,30.48
2023-04-27T09:24:53.942Z,30.15
2023-04-27T09:25:53.946Z,29.78
2023-04-27T09:26:53.968Z,30.22
2023-04-27T09:27:54.016Z,30.44
2023-04-27T09:28:54.033Z,30.06
2023-04-27T09:29:54.061Z,30.05
2023-04-27T09:30:54.069Z,30.29
2023-04-27T09:31:54.123Z,30.72
2023-04-27T09:32:54.157Z,30.23
2023-04-27T09:33:54.150Z,30.16
2023-04-27T09:34:54.176Z,30.55
2023-04-27T09:35:54.188Z,30.54
2023-04-27T09:36:54.253Z,30.11
2023-04-27T09:37:54.263Z,30.72
2023-04-27T09:38:54.246Z,30.09
2023-04-27T09:39:54.281Z,30.21
2023-04-27T09:40:54.320Z,30.50
2023-04-27T09:41:54.363Z,30.96
2023-04-27T09:42:54.384Z,31.03
2023-04-27T09:43:57.058Z,31.01
2023-04-27T09:44:54.383Z,30.11
2023-04-27T09:45:54.361Z,30.60
2023-04-27T09:46:54.366Z,30.74
2023-04-27T09:47:54.313Z,30.70
2023-04-27T09:48:54.248Z,30.73
2023-04-27T09:49:54.242Z,30.71
2023-04-27T09:50:54.215Z,30.56
2023-04-27T09:51:54.235Z,30.72
2023-04-27T09:52:54.136Z,30.74
2023-04-27T09:53:54.133Z,30.77
2023-04-27T09:54:54.064Z,30.71
2023-04-27T09:55:54.020Z,30.76
2023-04-27T09:56:54.013Z,30.80
2023-04-27T09:57:53.970Z,30.82
2023-04-27T09:58:54.481Z,30.87
2023-04-27T09:59:53.904Z,30.95
2023-04-27T10:00:53.926Z,30.96
2023-04-27T10:01:53.858Z,31.00
2023-04-27T10:02:54.333Z,31.05
2023-04-27T10:03:54.025Z,31.06
2023-04-27T10:04:53.754Z,31.10
2023-04-27T10:05:53.712Z,31.16
2023-04-27T10:06:54.690Z,31.15
2023-04-27T10:07:53.670Z,31.24
2023-04-27T10:08:53.610Z,31.23
2023-04-27T10:09:53.580Z,31.27
2023-04-27T10:10:53.547Z,31.32
2023-04-27T10:11:53.544Z,31.34
2023-04-27T10:12:53.518Z,31.39
2023-04-27T10:13:54.421Z,31.41
2023-04-27T10:14:53.484Z,31.45
2023-04-27T10:15:53.461Z,31.53
2023-04-27T10:16:53.745Z,31.55
2023-04-27T10:17:53.473Z,31.71
2023-04-27T10:18:53.410Z,31.82
2023-04-27T10:19:55.070Z,31.89
2023-04-27T10:20:53.345Z,32.00
2023-04-27T10:21:53.320Z,32.05
2023-04-27T10:22:53.288Z,32.08
2023-04-27T10:23:53.270Z,32.18
2023-04-27T10:24:53.209Z,32.15
2023-04-27T10:25:53.223Z,32.22
2023-04-27T10:26:53.148Z,32.32
2023-04-27T10:27:53.125Z,32.39
2023-04-27T10:28:53.094Z,32.50
2023-04-27T10:29:53.041Z,32.56
2023-04-27T10:30:53.049Z,32.67
2023-04-27T10:31:52.981Z,32.68
2023-04-27T10:32:52.960Z,32.76
2023-04-27T10:33:52.987Z,32.82
2023-04-27T10:34:52.894Z,32.96
2023-04-27T10:35:52.874Z,33.16
2023-04-27T10:36:53.339Z,33.17
2023-04-27T10:37:52.750Z,33.24
2023-04-27T10:38:52.734Z,33.16
2023-04-27T10:39:54.276Z,33.05
2023-04-27T10:40:52.800Z,32.93
2023-04-27T10:41:52.869Z,32.80
2023-04-27T10:42:52.860Z,32.81
2023-04-27T10:43:52.904Z,32.94
2023-04-27T10:44:52.962Z,33.09
2023-04-27T10:45:52.994Z,33.15
2023-04-27T10:46:53.027Z,33.26
2023-04-27T10:47:53.056Z,33.35
2023-04-27T10:48:53.059Z,33.46
2023-04-27T10:49:53.063Z,33.48
2023-04-27T10:50:53.088Z,33.63
2023-04-27T10:51:53.121Z,33.63
2023-04-27T10:52:53.151Z,33.74
2023-04-27T10:53:53.320Z,33.80
2023-04-27T10:54:53.226Z,33.89
2023-04-27T10:55:53.302Z,33.98
2023-04-27T10:56:53.266Z,34.09
2023-04-27T10:57:54.047Z,34.14
2023-04-27T10:58:53.283Z,34.23
2023-04-27T10:59:54.108Z,34.24
2023-04-27T11:00:53.380Z,34.35
2023-04-27T11:01:53.619Z,34.40
2023-04-27T11:02:53.468Z,34.44
2023-04-27T11:03:53.399Z,34.47
2023-04-27T11:04:53.335Z,34.45
2023-04-27T11:05:53.287Z,34.54
2023-04-27T11:06:53.360Z,34.57
2023-04-27T11:07:53.323Z,34.62
2023-04-27T11:08:53.212Z,34.72
2023-04-27T11:09:53.191Z,34.74
2023-04-27T11:10:53.119Z,34.84
2023-04-27T11:11:53.156Z,34.90
2023-04-27T11:12:53.093Z,34.91
2023-04-27T11:13:53.290Z,34.98
2023-04-27T11:14:53.148Z,35.04
2023-04-27T11:15:53.193Z,35.07
2023-04-27T11:16:53.249Z,35.14
2023-04-27T11:17:53.215Z,35.19
2023-04-27T11:18:53.225Z,35.20
2023-04-27T11:19:53.233Z,35.17
2023-04-27T11:20:53.256Z,35.23
2023-04-27T11:21:53.273Z,35.27
2023-04-27T11:22:53.298Z,35.29
2023-04-27T11:23:53.301Z,35.37
2023-04-27T11:24:53.268Z,35.38
2023-04-27T11:25:53.292Z,35.49
2023-04-27T11:26:53.341Z,35.57
2023-04-27T11:27:53.281Z,35.43
2023-04-27T11:28:53.144Z,35.37
2023-04-27T11:29:53.147Z,35.30
2023-04-27T11:30:53.039Z,35.22
2023-04-27T11:31:53.078Z,35.03
2023-04-27T11:32:52.988Z,34.85
2023-04-27T11:33:52.953Z,34.43
2023-04-27T11:34:55.201Z,34.14
2023-04-27T11:35:52.911Z,33.83
2023-04-27T11:36:54.434Z,33.56
2023-04-27T11:37:53.174Z,33.37
2023-04-27T11:38:53.149Z,33.25
2023-04-27T11:39:53.105Z,33.20
2023-04-27T11:40:53.062Z,33.22
2023-04-27T11:41:53.088Z,33.17
2023-04-27T11:42:53.053Z,33.13
2023-04-27T11:43:52.993Z,32.98
2023-04-27T11:44:52.960Z,32.93
2023-04-27T11:45:52.918Z,32.90
2023-04-27T11:46:52.966Z,32.84
2023-04-27T11:47:52.945Z,32.79
2023-04-27T11:48:52.866Z,32.79
2023-04-27T11:49:52.908Z,32.72
2023-04-27T11:50:52.939Z,32.71
2023-04-27T11:51:52.995Z,32.60
2023-04-27T11:52:53.032Z,32.58
2023-04-27T11:53:53.052Z,32.56
2023-04-27T11:54:53.098Z,32.48
2023-04-27T11:55:53.106Z,32.47
2023-04-27T11:56:53.109Z,32.37
2023-04-27T11:57:53.081Z,32.33
2023-04-27T11:58:53.029Z,32.28
2023-04-27T11:59:52.988Z,32.28
2023-04-27T12:00:52.954Z,32.26
2023-04-27T12:01:52.950Z,32.23
2023-04-27T12:02:53.121Z,32.20
2023-04-27T12:03:52.966Z,32.21
2023-04-27T12:04:52.979Z,32.14
2023-04-27T12:05:52.950Z,32.11
2023-04-27T12:06:52.756Z,32.07
2023-04-27T12:07:52.750Z,32.04
2023-04-27T12:08:52.764Z,32.00
2023-04-27T12:09:52.842Z,32.01
2023-04-27T12:10:52.853Z,32.03
2023-04-27T12:11:52.902Z,31.97
2023-04-27T12:12:52.937Z,31.99
2023-04-27T12:13:52.968Z,31.99
2023-04-27T12:14:53.043Z,31.93
2023-04-27T12:15:53.044Z,31.94
2023-04-27T12:16:53.100Z,31.93
2023-04-27T12:17:53.107Z,31.89
2023-04-27T12:18:53.082Z,31.88
2023-04-27T12:19:53.079Z,31.88
2023-04-27T12:20:53.097Z,31.84
2023-04-27T12:21:53.086Z,31.82
2023-04-27T12:22:53.126Z,31.79
2023-04-27T12:23:53.158Z,31.74
2023-04-27T12:24:53.188Z,31.73
2023-04-27T12:25:53.230Z,31.71
2023-04-27T12:26:53.287Z,31.67
2023-04-27T12:27:53.300Z,31.64
2023-04-27T12:28:53.347Z,31.65
2023-04-27T12:29:53.365Z,31.64
2023-04-27T12:30:53.413Z,31.64
2023-04-27T12:31:53.447Z,31.62
2023-04-27T12:32:53.498Z,31.60
2023-04-27T12:33:53.519Z,31.59
2023-04-27T12:34:53.501Z,31.57
2023-04-27T12:35:53.446Z,31.56
2023-04-27T12:36:53.441Z,31.53
2023-04-27T12:37:53.386Z,31.52
2023-04-27T12:38:53.367Z,31.51
2023-04-27T12:39:53.353Z,31.50
2023-04-27T12:40:53.300Z,31.50
2023-04-27T12:41:53.291Z,31.49
2023-04-27T12:42:53.256Z,31.44
2023-04-27T12:43:53.193Z,31.45
2023-04-27T12:44:53.191Z,31.40
2023-04-27T12:45:53.144Z,31.38
2023-04-27T12:46:53.167Z,31.41
2023-04-27T12:48:02.514Z,31.35
2023-04-27T12:48:53.123Z,31.34
2023-04-27T12:49:53.017Z,31.33
2023-04-27T12:50:52.986Z,31.29
2023-04-27T12:51:52.952Z,31.29
2023-04-27T12:52:52.927Z,31.29